METAR Data
IDs: Format: Raw Decoded Include TAF

Data at: 0231 UTC 24 Oct 2019

METAR for:KCBF (Council Bluffs Muni, IA, US)
Text:KCBF 240215Z AUTO 02010KT 10SM SCT010 BKN013 OVC029 06/06 A3011 RMK AO2
Temperature: 6.0°C ( 43°F)
Dewpoint: 6.0°C ( 43°F) [RH = 100%]
Pressure (altimeter):30.11 inches Hg (1019.7 mb)
Winds:from the NNE (20 degrees) at 12 MPH (10 knots; 5.1 m/s)
Visibility:10 or more sm (16+ km)
Ceiling:1300 feet AGL
Clouds: scattered clouds at 1000 feet AGL, broken clouds at 1300 feet AGL, overcast cloud deck at 2900 feet AGL
QC Flag:automated observation with no human augmentation